sensor_id;sensor_type;location;lat;lon;timestamp;temperature;humidity
67893;DHT22;54688;52.376;16.744;2022-10-16T00:00:19;11.3;84.5
67893;DHT22;54688;52.376;16.744;2022-10-16T00:04:00;11.4;84.9
67893;DHT22;54688;52.376;16.744;2022-10-16T00:07:03;11.5;85.1
67893;DHT22;54688;52.376;16.744;2022-10-16T00:10:05;11.6;85.2
67893;DHT22;54688;52.376;16.744;2022-10-16T00:13:08;11.6;85.2
67893;DHT22;54688;52.376;16.744;2022-10-16T00:16:10;11.7;85.2
67893;DHT22;54688;52.376;16.744;2022-10-16T00:19:13;11.8;85.3
67893;DHT22;54688;52.376;16.744;2022-10-16T00:22:15;11.8;85.3
67893;DHT22;54688;52.376;16.744;2022-10-16T00:25:17;11.9;85.4
67893;DHT22;54688;52.376;16.744;2022-10-16T00:28:18;12;85.3
67893;DHT22;54688;52.376;16.744;2022-10-16T00:31:22;12;85.3
67893;DHT22;54688;52.376;16.744;2022-10-16T00:34:25;12.1;85.2
67893;DHT22;54688;52.376;16.744;2022-10-16T00:37:27;12.1;85.1
67893;DHT22;54688;52.376;16.744;2022-10-16T00:40:29;12.1;85.5
67893;DHT22;54688;52.376;16.744;2022-10-16T00:43:33;12.2;84.9
67893;DHT22;54688;52.376;16.744;2022-10-16T00:46:38;12.2;84.7
67893;DHT22;54688;52.376;16.744;2022-10-16T00:49:42;12.3;85.2
67893;DHT22;54688;52.376;16.744;2022-10-16T00:52:46;12.3;84.4
67893;DHT22;54688;52.376;16.744;2022-10-16T00:55:50;12.4;84.7
67893;DHT22;54688;52.376;16.744;2022-10-16T00:58:51;12.4;84.2
67893;DHT22;54688;52.376;16.744;2022-10-16T01:01:54;12.4;84
67893;DHT22;54688;52.376;16.744;2022-10-16T01:04:57;12.4;83.9
67893;DHT22;54688;52.376;16.744;2022-10-16T01:08:01;12.4;83.8
67893;DHT22;54688;52.376;16.744;2022-10-16T01:11:10;12.5;83.7
67893;DHT22;54688;52.376;16.744;2022-10-16T01:14:21;12.5;83.6
67893;DHT22;54688;52.376;16.744;2022-10-16T01:17:27;12.5;83.6
67893;DHT22;54688;52.376;16.744;2022-10-16T01:20:35;12.5;83.6
67893;DHT22;54688;52.376;16.744;2022-10-16T01:23:43;12.6;83.5
67893;DHT22;54688;52.376;16.744;2022-10-16T01:27:06;12.6;84
67893;DHT22;54688;52.376;16.744;2022-10-16T01:30:12;12.6;83.5
67893;DHT22;54688;52.376;16.744;2022-10-16T01:33:19;12.6;83.5
67893;DHT22;54688;52.376;16.744;2022-10-16T01:36:24;12.6;83.2
67893;DHT22;54688;52.376;16.744;2022-10-16T01:39:31;12.6;82.8
67893;DHT22;54688;52.376;16.744;2022-10-16T01:42:36;12.6;83.2
67893;DHT22;54688;52.376;16.744;2022-10-16T01:45:42;12.6;83.2
67893;DHT22;54688;52.376;16.744;2022-10-16T01:48:47;12.7;83.2
67893;DHT22;54688;52.376;16.744;2022-10-16T01:51:52;12.7;83.6
67893;DHT22;54688;52.376;16.744;2022-10-16T01:54:57;12.7;83.3
67893;DHT22;54688;52.376;16.744;2022-10-16T01:58:02;12.7;83.2
67893;DHT22;54688;52.376;16.744;2022-10-16T02:01:09;12.7;83.2
67893;DHT22;54688;52.376;16.744;2022-10-16T02:04:15;12.7;83.1
67893;DHT22;54688;52.376;16.744;2022-10-16T02:07:22;12.8;83
67893;DHT22;54688;52.376;16.744;2022-10-16T02:10:25;12.7;83
67893;DHT22;54688;52.376;16.744;2022-10-16T02:13:28;12.8;83
67893;DHT22;54688;52.376;16.744;2022-10-16T02:16:35;12.8;83.1
67893;DHT22;54688;52.376;16.744;2022-10-16T02:19:38;12.7;83
67893;DHT22;54688;52.376;16.744;2022-10-16T02:22:40;12.8;82.7
67893;DHT22;54688;52.376;16.744;2022-10-16T02:25:46;12.9;82.3
67893;DHT22;54688;52.376;16.744;2022-10-16T02:28:51;12.8;82.9
67893;DHT22;54688;52.376;16.744;2022-10-16T02:31:57;12.8;83
67893;DHT22;54688;52.376;16.744;2022-10-16T02:35:04;12.9;83
67893;DHT22;54688;52.376;16.744;2022-10-16T02:38:09;12.9;82.8
67893;DHT22;54688;52.376;16.744;2022-10-16T02:41:12;12.9;82.7
67893;DHT22;54688;52.376;16.744;2022-10-16T02:44:13;12.9;83.2
67893;DHT22;54688;52.376;16.744;2022-10-16T02:47:15;13;83.5
67893;DHT22;54688;52.376;16.744;2022-10-16T02:50:18;12.9;82.8
67893;DHT22;54688;52.376;16.744;2022-10-16T02:53:20;13;83.3
67893;DHT22;54688;52.376;16.744;2022-10-16T02:56:21;13;82.4
67893;DHT22;54688;52.376;16.744;2022-10-16T02:59:23;13;82.8
67893;DHT22;54688;52.376;16.744;2022-10-16T03:02:25;13;82.7
67893;DHT22;54688;52.376;16.744;2022-10-16T03:05:27;13.1;82.7
67893;DHT22;54688;52.376;16.744;2022-10-16T03:08:30;13;82.6
67893;DHT22;54688;52.376;16.744;2022-10-16T03:11:32;13;82.6
67893;DHT22;54688;52.376;16.744;2022-10-16T03:14:34;13;82.6
67893;DHT22;54688;52.376;16.744;2022-10-16T03:17:36;13;82.7
67893;DHT22;54688;52.376;16.744;2022-10-16T03:20:38;13;82.7
67893;DHT22;54688;52.376;16.744;2022-10-16T03:23:40;12.9;82.5
67893;DHT22;54688;52.376;16.744;2022-10-16T03:26:42;12.9;81.6
67893;DHT22;54688;52.376;16.744;2022-10-16T03:29:44;12.8;82.6
67893;DHT22;54688;52.376;16.744;2022-10-16T03:32:46;12.7;82.8
67893;DHT22;54688;52.376;16.744;2022-10-16T03:35:51;12.7;83.1
67893;DHT22;54688;52.376;16.744;2022-10-16T03:38:53;12.6;83.4
67893;DHT22;54688;52.376;16.744;2022-10-16T03:41:55;12.6;82.9
67893;DHT22;54688;52.376;16.744;2022-10-16T03:44:57;12.6;84.2
67893;DHT22;54688;52.376;16.744;2022-10-16T03:47:59;12.6;84.9
67893;DHT22;54688;52.376;16.744;2022-10-16T03:51:01;12.7;84.3
67893;DHT22;54688;52.376;16.744;2022-10-16T03:54:03;12.8;83.4
67893;DHT22;54688;52.376;16.744;2022-10-16T03:57:05;12.8;84.2
67893;DHT22;54688;52.376;16.744;2022-10-16T04:00:08;12.8;84.2
67893;DHT22;54688;52.376;16.744;2022-10-16T04:03:11;12.9;84.1
67893;DHT22;54688;52.376;16.744;2022-10-16T04:06:14;12.9;84.1
67893;DHT22;54688;52.376;16.744;2022-10-16T04:09:15;13;84.2
67893;DHT22;54688;52.376;16.744;2022-10-16T04:12:18;13;84.1
67893;DHT22;54688;52.376;16.744;2022-10-16T04:15:20;13;83.9
67893;DHT22;54688;52.376;16.744;2022-10-16T04:18:21;13;83.9
67893;DHT22;54688;52.376;16.744;2022-10-16T04:21:24;13.1;83.9
67893;DHT22;54688;52.376;16.744;2022-10-16T04:24:25;13.1;84.5
67893;DHT22;54688;52.376;16.744;2022-10-16T04:27:28;13.1;84.3
67893;DHT22;54688;52.376;16.744;2022-10-16T04:30:30;13.1;84
67893;DHT22;54688;52.376;16.744;2022-10-16T04:33:32;13.1;84
67893;DHT22;54688;52.376;16.744;2022-10-16T04:36:35;13.1;84.5
67893;DHT22;54688;52.376;16.744;2022-10-16T04:39:38;13.2;84.3
67893;DHT22;54688;52.376;16.744;2022-10-16T04:42:40;13.2;83.9
67893;DHT22;54688;52.376;16.744;2022-10-16T04:45:42;13.2;84.4
67893;DHT22;54688;52.376;16.744;2022-10-16T04:48:44;13.2;84.5
67893;DHT22;54688;52.376;16.744;2022-10-16T04:51:46;13.2;84.8
67893;DHT22;54688;52.376;16.744;2022-10-16T04:54:48;13.2;84.5
67893;DHT22;54688;52.376;16.744;2022-10-16T04:57:50;13.2;84.6
67893;DHT22;54688;52.376;16.744;2022-10-16T05:00:53;13.2;84.5
67893;DHT22;54688;52.376;16.744;2022-10-16T05:03:55;13.2;85.4
67893;DHT22;54688;52.376;16.744;2022-10-16T05:06:57;13.2;84.5
67893;DHT22;54688;52.376;16.744;2022-10-16T05:09:59;13.2;84.6
67893;DHT22;54688;52.376;16.744;2022-10-16T05:13:01;13.1;84.6
67893;DHT22;54688;52.376;16.744;2022-10-16T05:16:04;13.2;84.8
67893;DHT22;54688;52.376;16.744;2022-10-16T05:19:07;13.2;84.9
67893;DHT22;54688;52.376;16.744;2022-10-16T05:22:09;13.2;84.9
67893;DHT22;54688;52.376;16.744;2022-10-16T05:25:11;13.2;84.8
67893;DHT22;54688;52.376;16.744;2022-10-16T05:28:13;13.2;84.6
67893;DHT22;54688;52.376;16.744;2022-10-16T05:31:15;13.2;84.6
67893;DHT22;54688;52.376;16.744;2022-10-16T05:34:16;13.2;84.6
67893;DHT22;54688;52.376;16.744;2022-10-16T05:37:19;13.2;84.9
67893;DHT22;54688;52.376;16.744;2022-10-16T05:40:21;13.1;84.5
67893;DHT22;54688;52.376;16.744;2022-10-16T05:43:23;13.1;84.7
67893;DHT22;54688;52.376;16.744;2022-10-16T05:46:25;13;84.6
67893;DHT22;54688;52.376;16.744;2022-10-16T05:49:27;13;84.7
67893;DHT22;54688;52.376;16.744;2022-10-16T05:52:29;12.9;84.9
67893;DHT22;54688;52.376;16.744;2022-10-16T05:55:31;12.9;85.2
67893;DHT22;54688;52.376;16.744;2022-10-16T05:58:33;12.9;85.5
67893;DHT22;54688;52.376;16.744;2022-10-16T06:01:36;12.8;85.5
67893;DHT22;54688;52.376;16.744;2022-10-16T06:04:39;12.9;85.6
67893;DHT22;54688;52.376;16.744;2022-10-16T06:07:40;12.9;85.6
67893;DHT22;54688;52.376;16.744;2022-10-16T06:10:42;12.8;85.5
67893;DHT22;54688;52.376;16.744;2022-10-16T06:13:48;12.8;85.8
67893;DHT22;54688;52.376;16.744;2022-10-16T06:16:52;12.8;86
67893;DHT22;54688;52.376;16.744;2022-10-16T06:19:54;12.8;86.1
67893;DHT22;54688;52.376;16.744;2022-10-16T06:22:56;12.8;86.2
67893;DHT22;54688;52.376;16.744;2022-10-16T06:26:03;12.8;86.2
67893;DHT22;54688;52.376;16.744;2022-10-16T06:29:06;12.8;86.3
67893;DHT22;54688;52.376;16.744;2022-10-16T06:32:09;12.8;86.5
67893;DHT22;54688;52.376;16.744;2022-10-16T06:35:11;12.8;86.4
67893;DHT22;54688;52.376;16.744;2022-10-16T06:38:14;12.9;86.5
67893;DHT22;54688;52.376;16.744;2022-10-16T06:41:17;12.9;86
67893;DHT22;54688;52.376;16.744;2022-10-16T06:44:19;12.9;86.6
67893;DHT22;54688;52.376;16.744;2022-10-16T06:47:22;13;86.8
67893;DHT22;54688;52.376;16.744;2022-10-16T06:53:23;13.2;86.9
67893;DHT22;54688;52.376;16.744;2022-10-16T06:56:26;13.3;86.8
67893;DHT22;54688;52.376;16.744;2022-10-16T06:59:29;13.4;86.5
67893;DHT22;54688;52.376;16.744;2022-10-16T07:02:32;13.5;86.2
67893;DHT22;54688;52.376;16.744;2022-10-16T07:05:36;13.6;85.6
67893;DHT22;54688;52.376;16.744;2022-10-16T07:08:39;13.7;85.1
67893;DHT22;54688;52.376;16.744;2022-10-16T07:11:43;13.8;84.7
67893;DHT22;54688;52.376;16.744;2022-10-16T07:14:45;13.9;84.5
67893;DHT22;54688;52.376;16.744;2022-10-16T07:17:47;14;84.3
67893;DHT22;54688;52.376;16.744;2022-10-16T07:20:48;14.1;84.1
67893;DHT22;54688;52.376;16.744;2022-10-16T07:23:51;14.2;84
67893;DHT22;54688;52.376;16.744;2022-10-16T07:26:53;14.2;83.6
67893;DHT22;54688;52.376;16.744;2022-10-16T07:29:55;14.4;83.4
67893;DHT22;54688;52.376;16.744;2022-10-16T07:32:57;14.4;83
67893;DHT22;54688;52.376;16.744;2022-10-16T07:35:59;14.5;82.4
67893;DHT22;54688;52.376;16.744;2022-10-16T07:39:02;14.6;80.9
67893;DHT22;54688;52.376;16.744;2022-10-16T07:42:05;14.6;81.4
67893;DHT22;54688;52.376;16.744;2022-10-16T07:45:07;14.5;81.5
67893;DHT22;54688;52.376;16.744;2022-10-16T07:48:10;14.6;81.6
67893;DHT22;54688;52.376;16.744;2022-10-16T07:51:15;14.5;81.5
67893;DHT22;54688;52.376;16.744;2022-10-16T07:54:18;14.6;81.5
67893;DHT22;54688;52.376;16.744;2022-10-16T07:57:20;14.6;81.3
67893;DHT22;54688;52.376;16.744;2022-10-16T08:00:22;14.6;81.3
67893;DHT22;54688;52.376;16.744;2022-10-16T08:03:24;14.7;81.4
67893;DHT22;54688;52.376;16.744;2022-10-16T08:06:26;14.8;80.9
67893;DHT22;54688;52.376;16.744;2022-10-16T08:09:28;14.8;80.8
67893;DHT22;54688;52.376;16.744;2022-10-16T08:12:30;14.9;80.6
67893;DHT22;54688;52.376;16.744;2022-10-16T08:15:32;15;80.2
67893;DHT22;54688;52.376;16.744;2022-10-16T08:18:35;15.1;79.8
67893;DHT22;54688;52.376;16.744;2022-10-16T08:21:37;15.3;80
67893;DHT22;54688;52.376;16.744;2022-10-16T08:24:39;15.3;79.3
67893;DHT22;54688;52.376;16.744;2022-10-16T08:27:42;15.4;78.3
67893;DHT22;54688;52.376;16.744;2022-10-16T08:30:44;15.5;78.7
67893;DHT22;54688;52.376;16.744;2022-10-16T08:33:46;15.6;78.4
67893;DHT22;54688;52.376;16.744;2022-10-16T08:36:48;15.6;78.6
67893;DHT22;54688;52.376;16.744;2022-10-16T08:39:51;15.7;78.3
67893;DHT22;54688;52.376;16.744;2022-10-16T08:42:59;15.8;78.1
67893;DHT22;54688;52.376;16.744;2022-10-16T08:46:16;15.9;77.6
67893;DHT22;54688;52.376;16.744;2022-10-16T08:49:28;16;77.5
67893;DHT22;54688;52.376;16.744;2022-10-16T08:52:32;16.2;76.5
67893;DHT22;54688;52.376;16.744;2022-10-16T08:55:38;16.3;76.1
67893;DHT22;54688;52.376;16.744;2022-10-16T08:58:43;16.4;75.4
67893;DHT22;54688;52.376;16.744;2022-10-16T09:01:47;16.5;75.2
67893;DHT22;54688;52.376;16.744;2022-10-16T09:04:58;16.5;74.5
67893;DHT22;54688;52.376;16.744;2022-10-16T09:08:13;16.6;74.5
67893;DHT22;54688;52.376;16.744;2022-10-16T09:11:25;16.7;74.7
67893;DHT22;54688;52.376;16.744;2022-10-16T09:14:38;16.8;73.9
67893;DHT22;54688;52.376;16.744;2022-10-16T09:17:52;17;73.1
67893;DHT22;54688;52.376;16.744;2022-10-16T09:20:59;17;72.6
67893;DHT22;54688;52.376;16.744;2022-10-16T09:24:09;17;73
67893;DHT22;54688;52.376;16.744;2022-10-16T09:27:15;17;72.9
67893;DHT22;54688;52.376;16.744;2022-10-16T09:30:18;17;72.4
67893;DHT22;54688;52.376;16.744;2022-10-16T09:33:22;17;72.4
67893;DHT22;54688;52.376;16.744;2022-10-16T09:36:27;16.9;72.3
67893;DHT22;54688;52.376;16.744;2022-10-16T09:39:31;16.9;73.1
67893;DHT22;54688;52.376;16.744;2022-10-16T09:42:47;16.9;72.6
67893;DHT22;54688;52.376;16.744;2022-10-16T09:45:57;17;72.8
67893;DHT22;54688;52.376;16.744;2022-10-16T09:49:00;17;72.7
67893;DHT22;54688;52.376;16.744;2022-10-16T09:52:04;17;72.4
67893;DHT22;54688;52.376;16.744;2022-10-16T09:55:12;17.1;71.9
67893;DHT22;54688;52.376;16.744;2022-10-16T09:58:16;17.2;72
67893;DHT22;54688;52.376;16.744;2022-10-16T10:01:18;17.4;71.9
67893;DHT22;54688;52.376;16.744;2022-10-16T10:04:20;17.5;71.5
67893;DHT22;54688;52.376;16.744;2022-10-16T10:07:25;17.6;70.9
67893;DHT22;54688;52.376;16.744;2022-10-16T10:10:29;17.8;70.7
67893;DHT22;54688;52.376;16.744;2022-10-16T10:13:33;17.9;70.2
67893;DHT22;54688;52.376;16.744;2022-10-16T10:16:34;18.1;69.7
67893;DHT22;54688;52.376;16.744;2022-10-16T10:19:38;18.2;69
67893;DHT22;54688;52.376;16.744;2022-10-16T10:22:41;18.3;68.1
67893;DHT22;54688;52.376;16.744;2022-10-16T10:25:49;18.5;67.7
67893;DHT22;54688;52.376;16.744;2022-10-16T10:28:56;18.5;67.6
67893;DHT22;54688;52.376;16.744;2022-10-16T10:32:04;18.7;67.3
67893;DHT22;54688;52.376;16.744;2022-10-16T10:35:15;18.7;67.1
67893;DHT22;54688;52.376;16.744;2022-10-16T10:38:26;18.8;66.8
67893;DHT22;54688;52.376;16.744;2022-10-16T10:41:38;18.9;67.6
67893;DHT22;54688;52.376;16.744;2022-10-16T10:45:03;19;66.7
67893;DHT22;54688;52.376;16.744;2022-10-16T10:48:21;19.1;65.4
67893;DHT22;54688;52.376;16.744;2022-10-16T10:51:36;19.2;65.3
67893;DHT22;54688;52.376;16.744;2022-10-16T10:54:46;19.2;65.4
67893;DHT22;54688;52.376;16.744;2022-10-16T10:58:00;19.3;66
67893;DHT22;54688;52.376;16.744;2022-10-16T11:01:12;19.4;65.7
67893;DHT22;54688;52.376;16.744;2022-10-16T11:04:29;19.4;65
67893;DHT22;54688;52.376;16.744;2022-10-16T11:07:44;19.5;64.3
67893;DHT22;54688;52.376;16.744;2022-10-16T11:10:52;19.5;64
67893;DHT22;54688;52.376;16.744;2022-10-16T11:13:57;19.6;64
67893;DHT22;54688;52.376;16.744;2022-10-16T11:17:02;19.7;63.6
67893;DHT22;54688;52.376;16.744;2022-10-16T11:20:12;19.8;62.1
67893;DHT22;54688;52.376;16.744;2022-10-16T11:26:16;19.8;62.6
67893;DHT22;54688;52.376;16.744;2022-10-16T11:29:22;19.7;61.2
67893;DHT22;54688;52.376;16.744;2022-10-16T11:32:28;19.7;62.1
67893;DHT22;54688;52.376;16.744;2022-10-16T11:35:37;19.7;61.6
67893;DHT22;54688;52.376;16.744;2022-10-16T11:38:46;19.7;61.9
67893;DHT22;54688;52.376;16.744;2022-10-16T11:41:53;19.7;62.5
67893;DHT22;54688;52.376;16.744;2022-10-16T11:45:00;19.7;62.4
67893;DHT22;54688;52.376;16.744;2022-10-16T11:48:14;19.7;62.1
67893;DHT22;54688;52.376;16.744;2022-10-16T11:51:25;19.8;62
67893;DHT22;54688;52.376;16.744;2022-10-16T11:54:36;19.9;62.3
67893;DHT22;54688;52.376;16.744;2022-10-16T11:57:45;20;61.9
67893;DHT22;54688;52.376;16.744;2022-10-16T12:00:52;20;61.3
67893;DHT22;54688;52.376;16.744;2022-10-16T12:04:04;20.1;61
67893;DHT22;54688;52.376;16.744;2022-10-16T12:07:17;20.1;61
67893;DHT22;54688;52.376;16.744;2022-10-16T12:10:24;20.1;60.5
67893;DHT22;54688;52.376;16.744;2022-10-16T12:13:29;20.1;59.2
67893;DHT22;54688;52.376;16.744;2022-10-16T12:16:33;20.1;59
67893;DHT22;54688;52.376;16.744;2022-10-16T12:19:35;20.1;59.6
67893;DHT22;54688;52.376;16.744;2022-10-16T12:22:40;20.2;59.1
67893;DHT22;54688;52.376;16.744;2022-10-16T12:25:43;20.3;57.8
67893;DHT22;54688;52.376;16.744;2022-10-16T12:29:12;20.3;56
67893;DHT22;54688;52.376;16.744;2022-10-16T12:32:21;20.2;56.1
67893;DHT22;54688;52.376;16.744;2022-10-16T12:35:28;20.2;56.5
67893;DHT22;54688;52.376;16.744;2022-10-16T12:38:34;20.2;56.4
67893;DHT22;54688;52.376;16.744;2022-10-16T12:41:40;20.2;56.8
67893;DHT22;54688;52.376;16.744;2022-10-16T12:44:41;20.2;57.8
67893;DHT22;54688;52.376;16.744;2022-10-16T12:47:48;20.3;57.2
67893;DHT22;54688;52.376;16.744;2022-10-16T12:50:51;20.3;56.7
67893;DHT22;54688;52.376;16.744;2022-10-16T12:54:00;20.3;57.2
67893;DHT22;54688;52.376;16.744;2022-10-16T12:57:07;20.4;56.8
67893;DHT22;54688;52.376;16.744;2022-10-16T13:00:23;20.5;57
67893;DHT22;54688;52.376;16.744;2022-10-16T13:03:34;20.5;56.8
67893;DHT22;54688;52.376;16.744;2022-10-16T13:06:56;20.4;57
67893;DHT22;54688;52.376;16.744;2022-10-16T13:10:08;20.4;57.3
67893;DHT22;54688;52.376;16.744;2022-10-16T13:13:32;20.3;57.3
67893;DHT22;54688;52.376;16.744;2022-10-16T13:16:49;20.3;57.9
67893;DHT22;54688;52.376;16.744;2022-10-16T13:19:59;20.2;58.1
67893;DHT22;54688;52.376;16.744;2022-10-16T13:23:13;20.2;57.7
67893;DHT22;54688;52.376;16.744;2022-10-16T13:26:24;20.2;57.1
67893;DHT22;54688;52.376;16.744;2022-10-16T13:29:32;20.1;57.8
67893;DHT22;54688;52.376;16.744;2022-10-16T13:32:35;20.1;58
67893;DHT22;54688;52.376;16.744;2022-10-16T13:35:46;20.2;57.5
67893;DHT22;54688;52.376;16.744;2022-10-16T13:38:57;20.2;57.2
67893;DHT22;54688;52.376;16.744;2022-10-16T13:42:03;20.3;57.8
67893;DHT22;54688;52.376;16.744;2022-10-16T13:45:16;20.3;56.6
67893;DHT22;54688;52.376;16.744;2022-10-16T13:48:19;20.4;57.1
67893;DHT22;54688;52.376;16.744;2022-10-16T13:51:22;20.4;56.3
67893;DHT22;54688;52.376;16.744;2022-10-16T13:54:24;20.4;55.3
67893;DHT22;54688;52.376;16.744;2022-10-16T13:57:26;20.4;55.7
67893;DHT22;54688;52.376;16.744;2022-10-16T14:00:28;20.3;56
67893;DHT22;54688;52.376;16.744;2022-10-16T14:03:30;20.3;56.6
67893;DHT22;54688;52.376;16.744;2022-10-16T14:06:35;20.3;56.3
67893;DHT22;54688;52.376;16.744;2022-10-16T14:09:38;20.3;56.6
67893;DHT22;54688;52.376;16.744;2022-10-16T14:12:40;20.4;56.5
67893;DHT22;54688;52.376;16.744;2022-10-16T14:15:45;20.4;56.5
67893;DHT22;54688;52.376;16.744;2022-10-16T14:18:51;20.5;56.7
67893;DHT22;54688;52.376;16.744;2022-10-16T14:21:59;20.5;56.6
67893;DHT22;54688;52.376;16.744;2022-10-16T14:25:15;20.4;56.8
67893;DHT22;54688;52.376;16.744;2022-10-16T14:28:24;20.3;56
67893;DHT22;54688;52.376;16.744;2022-10-16T14:31:27;20.2;56.3
67893;DHT22;54688;52.376;16.744;2022-10-16T14:34:32;20.1;56.3
67893;DHT22;54688;52.376;16.744;2022-10-16T14:37:34;20;56.1
67893;DHT22;54688;52.376;16.744;2022-10-16T14:40:37;20;56.7
67893;DHT22;54688;52.376;16.744;2022-10-16T14:43:40;19.9;56.8
67893;DHT22;54688;52.376;16.744;2022-10-16T14:46:43;19.8;57.2
67893;DHT22;54688;52.376;16.744;2022-10-16T14:49:45;19.7;56.8
67893;DHT22;54688;52.376;16.744;2022-10-16T14:52:47;19.6;57.2
67893;DHT22;54688;52.376;16.744;2022-10-16T14:55:49;19.6;57.9
67893;DHT22;54688;52.376;16.744;2022-10-16T14:58:52;19.5;57.9
67893;DHT22;54688;52.376;16.744;2022-10-16T15:01:54;19.4;58
67893;DHT22;54688;52.376;16.744;2022-10-16T15:04:57;19.4;58.4
67893;DHT22;54688;52.376;16.744;2022-10-16T15:08:04;19.4;58.6
67893;DHT22;54688;52.376;16.744;2022-10-16T15:11:07;19.4;58.7
67893;DHT22;54688;52.376;16.744;2022-10-16T15:14:12;19.4;58.7
67893;DHT22;54688;52.376;16.744;2022-10-16T15:17:14;19.5;58.6
67893;DHT22;54688;52.376;16.744;2022-10-16T15:20:16;19.5;58.2
67893;DHT22;54688;52.376;16.744;2022-10-16T15:23:20;19.6;58.3
67893;DHT22;54688;52.376;16.744;2022-10-16T15:26:24;19.6;57.9
67893;DHT22;54688;52.376;16.744;2022-10-16T15:29:26;19.6;59.3
67893;DHT22;54688;52.376;16.744;2022-10-16T15:32:28;19.6;58.1
67893;DHT22;54688;52.376;16.744;2022-10-16T15:35:29;19.5;58.3
67893;DHT22;54688;52.376;16.744;2022-10-16T15:38:32;19.4;58.8
67893;DHT22;54688;52.376;16.744;2022-10-16T15:41:34;19.2;59.4
67893;DHT22;54688;52.376;16.744;2022-10-16T15:44:37;19;60
67893;DHT22;54688;52.376;16.744;2022-10-16T15:47:38;18.8;60.6
67893;DHT22;54688;52.376;16.744;2022-10-16T15:50:42;18.7;61.4
67893;DHT22;54688;52.376;16.744;2022-10-16T15:53:44;18.6;61.2
67893;DHT22;54688;52.376;16.744;2022-10-16T15:56:46;18.4;62.6
67893;DHT22;54688;52.376;16.744;2022-10-16T15:59:48;18.2;63.1
67893;DHT22;54688;52.376;16.744;2022-10-16T16:02:51;18.1;63.7
67893;DHT22;54688;52.376;16.744;2022-10-16T16:05:55;17.9;63.9
67893;DHT22;54688;52.376;16.744;2022-10-16T16:08:57;17.8;64.2
67893;DHT22;54688;52.376;16.744;2022-10-16T16:12:00;17.6;64.1
67893;DHT22;54688;52.376;16.744;2022-10-16T16:15:03;17.4;64.7
67893;DHT22;54688;52.376;16.744;2022-10-16T16:18:07;17.4;64.8
67893;DHT22;54688;52.376;16.744;2022-10-16T16:21:09;17.2;65.6
67893;DHT22;54688;52.376;16.744;2022-10-16T16:24:13;17;65.2
67893;DHT22;54688;52.376;16.744;2022-10-16T16:27:15;16.9;66.8
67893;DHT22;54688;52.376;16.744;2022-10-16T16:30:17;16.7;67.3
67893;DHT22;54688;52.376;16.744;2022-10-16T16:33:20;16.6;67.3
67893;DHT22;54688;52.376;16.744;2022-10-16T16:36:22;16.5;67.9
67893;DHT22;54688;52.376;16.744;2022-10-16T16:39:25;16.3;67.7
67893;DHT22;54688;52.376;16.744;2022-10-16T16:42:28;16.2;68.6
67893;DHT22;54688;52.376;16.744;2022-10-16T16:45:30;16.1;69
67893;DHT22;54688;52.376;16.744;2022-10-16T16:48:32;15.9;69.5
67893;DHT22;54688;52.376;16.744;2022-10-16T16:51:34;15.8;69.9
67893;DHT22;54688;52.376;16.744;2022-10-16T16:54:36;15.7;70.3
67893;DHT22;54688;52.376;16.744;2022-10-16T16:57:38;15.6;70.9
67893;DHT22;54688;52.376;16.744;2022-10-16T17:00:44;15.5;71.3
67893;DHT22;54688;52.376;16.744;2022-10-16T17:03:47;15.4;70.8
67893;DHT22;54688;52.376;16.744;2022-10-16T17:06:52;15.3;72
67893;DHT22;54688;52.376;16.744;2022-10-16T17:09:54;15.3;72.2
67893;DHT22;54688;52.376;16.744;2022-10-16T17:12:56;15.1;71.7
67893;DHT22;54688;52.376;16.744;2022-10-16T17:15:58;15.1;71.7
67893;DHT22;54688;52.376;16.744;2022-10-16T17:19:01;15;72
67893;DHT22;54688;52.376;16.744;2022-10-16T17:22:04;14.9;72.5
67893;DHT22;54688;52.376;16.744;2022-10-16T17:25:07;14.8;73.1
67893;DHT22;54688;52.376;16.744;2022-10-16T17:28:10;14.7;73
67893;DHT22;54688;52.376;16.744;2022-10-16T17:31:13;14.6;74.3
67893;DHT22;54688;52.376;16.744;2022-10-16T17:34:17;14.5;73.3
67893;DHT22;54688;52.376;16.744;2022-10-16T17:37:19;14.5;73.4
67893;DHT22;54688;52.376;16.744;2022-10-16T17:40:20;14.4;73.6
67893;DHT22;54688;52.376;16.744;2022-10-16T17:43:23;14.2;73.8
67893;DHT22;54688;52.376;16.744;2022-10-16T17:46:25;14.2;73.9
67893;DHT22;54688;52.376;16.744;2022-10-16T17:49:27;14.1;74.1
67893;DHT22;54688;52.376;16.744;2022-10-16T17:52:29;14;73.9
67893;DHT22;54688;52.376;16.744;2022-10-16T17:55:36;13.9;74.4
67893;DHT22;54688;52.376;16.744;2022-10-16T17:58:39;13.9;74.7
67893;DHT22;54688;52.376;16.744;2022-10-16T18:04:40;13.8;75.1
67893;DHT22;54688;52.376;16.744;2022-10-16T18:07:42;13.7;75
67893;DHT22;54688;52.376;16.744;2022-10-16T18:10:44;13.6;74.8
67893;DHT22;54688;52.376;16.744;2022-10-16T18:13:47;13.6;74.7
67893;DHT22;54688;52.376;16.744;2022-10-16T18:16:50;13.5;75.5
67893;DHT22;54688;52.376;16.744;2022-10-16T18:19:52;13.4;75.7
67893;DHT22;54688;52.376;16.744;2022-10-16T18:22:54;13.4;75.6
67893;DHT22;54688;52.376;16.744;2022-10-16T18:25:58;13.2;75.7
67893;DHT22;54688;52.376;16.744;2022-10-16T18:28:59;13.2;75.8
67893;DHT22;54688;52.376;16.744;2022-10-16T18:32:02;13.1;76.5
67893;DHT22;54688;52.376;16.744;2022-10-16T18:35:04;13;77.4
67893;DHT22;54688;52.376;16.744;2022-10-16T18:38:07;13;76.8
67893;DHT22;54688;52.376;16.744;2022-10-16T18:41:09;13;76.9
67893;DHT22;54688;52.376;16.744;2022-10-16T18:44:11;12.9;76.4
67893;DHT22;54688;52.376;16.744;2022-10-16T18:47:14;12.8;76.4
67893;DHT22;54688;52.376;16.744;2022-10-16T18:50:16;12.8;76.7
67893;DHT22;54688;52.376;16.744;2022-10-16T18:53:18;12.8;76.9
67893;DHT22;54688;52.376;16.744;2022-10-16T18:56:21;12.7;76.9
67893;DHT22;54688;52.376;16.744;2022-10-16T18:59:24;12.7;76.6
67893;DHT22;54688;52.376;16.744;2022-10-16T19:02:25;12.7;76.7
67893;DHT22;54688;52.376;16.744;2022-10-16T19:05:27;12.6;76.7
67893;DHT22;54688;52.376;16.744;2022-10-16T19:08:29;12.6;77.2
67893;DHT22;54688;52.376;16.744;2022-10-16T19:11:32;12.5;77.7
67893;DHT22;54688;52.376;16.744;2022-10-16T19:14:35;12.5;78.1
67893;DHT22;54688;52.376;16.744;2022-10-16T19:17:37;12.5;77.4
67893;DHT22;54688;52.376;16.744;2022-10-16T19:20:39;12.5;77.1
67893;DHT22;54688;52.376;16.744;2022-10-16T19:23:41;12.5;76.5
67893;DHT22;54688;52.376;16.744;2022-10-16T19:26:44;12.4;77.2
67893;DHT22;54688;52.376;16.744;2022-10-16T19:29:46;12.4;77.8
67893;DHT22;54688;52.376;16.744;2022-10-16T19:32:49;12.3;77.9
67893;DHT22;54688;52.376;16.744;2022-10-16T19:35:51;12.3;78.2
67893;DHT22;54688;52.376;16.744;2022-10-16T19:38:54;12.2;78.2
67893;DHT22;54688;52.376;16.744;2022-10-16T19:41:57;12.2;78
67893;DHT22;54688;52.376;16.744;2022-10-16T19:44:59;12.2;78
67893;DHT22;54688;52.376;16.744;2022-10-16T19:48:00;12.2;78.2
67893;DHT22;54688;52.376;16.744;2022-10-16T19:51:03;12.1;79.4
67893;DHT22;54688;52.376;16.744;2022-10-16T19:54:07;12;78.9
67893;DHT22;54688;52.376;16.744;2022-10-16T19:57:11;12;78.5
67893;DHT22;54688;52.376;16.744;2022-10-16T20:00:14;12;78.4